sensor_id;sensor_type;location;lat;lon;timestamp;pressure;altitude;pressure_sealevel;temperature;humidity
39487;BME280;25173;50.430;18.926;2022-08-19T00:01:37;97696.03;;;25.28;58.68
39487;BME280;25173;50.430;18.926;2022-08-19T00:04:38;97688.88;;;25.27;58.24
39487;BME280;25173;50.430;18.926;2022-08-19T00:07:41;97693.63;;;25.26;58.41
39487;BME280;25173;50.430;18.926;2022-08-19T00:10:43;97698.41;;;25.26;58.31
39487;BME280;25173;50.430;18.926;2022-08-19T00:13:43;97699.59;;;25.25;58.19
39487;BME280;25173;50.430;18.926;2022-08-19T00:16:46;97696.38;;;25.23;58.76
39487;BME280;25173;50.430;18.926;2022-08-19T00:19:48;97699.50;;;25.18;58.48
39487;BME280;25173;50.430;18.926;2022-08-19T00:22:49;97694.69;;;25.14;58.60
39487;BME280;25173;50.430;18.926;2022-08-19T00:25:50;97693.84;;;25.10;58.73
39487;BME280;25173;50.430;18.926;2022-08-19T00:28:51;97691.78;;;25.04;59.08
39487;BME280;25173;50.430;18.926;2022-08-19T00:31:52;97687.34;;;24.99;59.24
39487;BME280;25173;50.430;18.926;2022-08-19T00:34:58;97682.50;;;24.93;59.37
39487;BME280;25173;50.430;18.926;2022-08-19T00:37:59;97677.63;;;24.86;59.35
39487;BME280;25173;50.430;18.926;2022-08-19T00:40:59;97680.34;;;24.83;59.34
39487;BME280;25173;50.430;18.926;2022-08-19T00:44:05;97674.00;;;24.82;59.76
39487;BME280;25173;50.430;18.926;2022-08-19T00:47:06;97674.75;;;24.79;59.58
39487;BME280;25173;50.430;18.926;2022-08-19T00:50:08;97668.81;;;24.81;59.66
39487;BME280;25173;50.430;18.926;2022-08-19T00:53:12;97670.81;;;24.84;59.49
39487;BME280;25173;50.430;18.926;2022-08-19T00:56:15;97666.41;;;24.83;59.66
39487;BME280;25173;50.430;18.926;2022-08-19T00:59:17;97658.47;;;24.81;59.85
39487;BME280;25173;50.430;18.926;2022-08-19T01:02:18;97659.59;;;24.76;59.74
39487;BME280;25173;50.430;18.926;2022-08-19T01:05:22;97660.72;;;24.72;60.08
39487;BME280;25173;50.430;18.926;2022-08-19T01:08:23;97663.88;;;24.67;60.01
39487;BME280;25173;50.430;18.926;2022-08-19T01:11:23;97660.22;;;24.63;60.13
39487;BME280;25173;50.430;18.926;2022-08-19T01:14:24;97657.78;;;24.58;60.38
39487;BME280;25173;50.430;18.926;2022-08-19T01:17:26;97662.47;;;24.54;60.22
39487;BME280;25173;50.430;18.926;2022-08-19T01:20:27;97658.84;;;24.50;60.50
39487;BME280;25173;50.430;18.926;2022-08-19T01:23:28;97657.25;;;24.49;60.38
39487;BME280;25173;50.430;18.926;2022-08-19T01:26:44;97637.28;;;24.43;60.49
39487;BME280;25173;50.430;18.926;2022-08-19T01:29:45;97641.19;;;24.38;60.79
39487;BME280;25173;50.430;18.926;2022-08-19T01:32:46;97645.19;;;24.38;60.90
39487;BME280;25173;50.430;18.926;2022-08-19T01:35:47;97651.13;;;24.36;60.78
39487;BME280;25173;50.430;18.926;2022-08-19T01:38:52;97643.50;;;24.33;60.82
39487;BME280;25173;50.430;18.926;2022-08-19T01:41:53;97648.25;;;24.29;61.06
39487;BME280;25173;50.430;18.926;2022-08-19T01:44:54;97645.03;;;24.27;61.25
39487;BME280;25173;50.430;18.926;2022-08-19T01:47:55;97644.59;;;24.25;60.90
39487;BME280;25173;50.430;18.926;2022-08-19T01:50:56;97638.19;;;24.21;61.41
39487;BME280;25173;50.430;18.926;2022-08-19T01:53:57;97640.88;;;24.17;61.13
39487;BME280;25173;50.430;18.926;2022-08-19T01:57:02;97632.13;;;24.15;61.36
39487;BME280;25173;50.430;18.926;2022-08-19T02:00:09;97632.91;;;24.16;61.27
39487;BME280;25173;50.430;18.926;2022-08-19T02:03:13;97625.31;;;24.13;61.60
39487;BME280;25173;50.430;18.926;2022-08-19T02:06:14;97620.13;;;24.11;61.44
39487;BME280;25173;50.430;18.926;2022-08-19T02:09:17;97621.28;;;24.10;61.46
39487;BME280;25173;50.430;18.926;2022-08-19T02:12:17;97620.50;;;24.10;61.72
39487;BME280;25173;50.430;18.926;2022-08-19T02:15:19;97617.31;;;24.08;61.52
39487;BME280;25173;50.430;18.926;2022-08-19T02:18:20;97617.25;;;24.04;61.67
39487;BME280;25173;50.430;18.926;2022-08-19T02:21:22;97612.03;;;24.03;61.59
39487;BME280;25173;50.430;18.926;2022-08-19T02:24:24;97610.88;;;24.04;61.98
39487;BME280;25173;50.430;18.926;2022-08-19T02:27:24;97617.22;;;24.01;62.07
39487;BME280;25173;50.430;18.926;2022-08-19T02:30:26;97625.94;;;24.03;61.98
39487;BME280;25173;50.430;18.926;2022-08-19T02:33:26;97622.38;;;24.02;61.87
39487;BME280;25173;50.430;18.926;2022-08-19T02:36:27;97627.13;;;24.02;62.04
39487;BME280;25173;50.430;18.926;2022-08-19T02:39:28;97620.75;;;24.01;61.87
39487;BME280;25173;50.430;18.926;2022-08-19T02:42:29;97617.56;;;23.99;62.30
39487;BME280;25173;50.430;18.926;2022-08-19T02:45:37;97627.53;;;24.00;62.12
39487;BME280;25173;50.430;18.926;2022-08-19T02:48:38;97628.63;;;23.95;62.21
39487;BME280;25173;50.430;18.926;2022-08-19T02:51:41;97639.75;;;23.95;62.27
39487;BME280;25173;50.430;18.926;2022-08-19T02:54:42;97627.44;;;23.93;62.31
39487;BME280;25173;50.430;18.926;2022-08-19T02:57:44;97625.81;;;23.92;62.34
39487;BME280;25173;50.430;18.926;2022-08-19T03:00:50;97628.59;;;23.92;62.62
39487;BME280;25173;50.430;18.926;2022-08-19T03:03:51;97616.66;;;23.91;62.30
39487;BME280;25173;50.430;18.926;2022-08-19T03:06:52;97627.78;;;23.91;62.26
39487;BME280;25173;50.430;18.926;2022-08-19T03:09:52;97627.31;;;23.86;62.24
39487;BME280;25173;50.430;18.926;2022-08-19T03:12:53;97630.84;;;23.83;62.05
39487;BME280;25173;50.430;18.926;2022-08-19T03:15:53;97638.00;;;23.84;62.29
39487;BME280;25173;50.430;18.926;2022-08-19T03:18:56;97623.72;;;23.85;62.65
39487;BME280;25173;50.430;18.926;2022-08-19T03:22:00;97626.06;;;23.83;62.53
39487;BME280;25173;50.430;18.926;2022-08-19T03:25:00;97628.38;;;23.78;62.50
39487;BME280;25173;50.430;18.926;2022-08-19T03:28:01;97624.72;;;23.74;62.49
39487;BME280;25173;50.430;18.926;2022-08-19T03:31:09;97623.91;;;23.73;62.81
39487;BME280;25173;50.430;18.926;2022-08-19T03:34:13;97628.63;;;23.69;63.02
39487;BME280;25173;50.430;18.926;2022-08-19T03:37:14;97625.78;;;23.66;63.09
39487;BME280;25173;50.430;18.926;2022-08-19T03:40:14;97626.56;;;23.63;62.88
39487;BME280;25173;50.430;18.926;2022-08-19T03:43:15;97641.63;;;23.62;63.25
39487;BME280;25173;50.430;18.926;2022-08-19T03:46:26;97645.94;;;23.59;63.15
39487;BME280;25173;50.430;18.926;2022-08-19T03:49:28;97645.47;;;23.53;63.61
39487;BME280;25173;50.430;18.926;2022-08-19T03:52:29;97647.88;;;23.55;62.95
39487;BME280;25173;50.430;18.926;2022-08-19T03:55:30;97649.53;;;23.59;63.23
39487;BME280;25173;50.430;18.926;2022-08-19T03:58:31;97646.41;;;23.65;63.10
39487;BME280;25173;50.430;18.926;2022-08-19T04:01:31;97644.53;;;23.69;63.12
39487;BME280;25173;50.430;18.926;2022-08-19T04:04:32;97657.28;;;23.73;63.12
39487;BME280;25173;50.430;18.926;2022-08-19T04:07:33;97653.78;;;23.76;62.91
39487;BME280;25173;50.430;18.926;2022-08-19T04:10:37;97654.25;;;23.82;63.19
39487;BME280;25173;50.430;18.926;2022-08-19T04:13:37;97665.38;;;23.82;62.72
39487;BME280;25173;50.430;18.926;2022-08-19T04:16:38;97674.97;;;23.84;62.81
39487;BME280;25173;50.430;18.926;2022-08-19T04:19:39;97663.47;;;23.86;62.89
39487;BME280;25173;50.430;18.926;2022-08-19T04:22:41;97666.25;;;23.86;62.99
39487;BME280;25173;50.430;18.926;2022-08-19T04:25:43;97659.56;;;23.90;63.03
39487;BME280;25173;50.430;18.926;2022-08-19T04:28:47;97681.09;;;23.93;62.87
39487;BME280;25173;50.430;18.926;2022-08-19T04:31:52;97681.97;;;24.01;62.69
39487;BME280;25173;50.430;18.926;2022-08-19T04:35:02;97693.25;;;24.08;62.62
39487;BME280;25173;50.430;18.926;2022-08-19T04:38:13;97696.13;;;24.15;62.72
39487;BME280;25173;50.430;18.926;2022-08-19T04:41:15;97695.13;;;24.27;62.66
39487;BME280;25173;50.430;18.926;2022-08-19T04:44:35;97698.53;;;24.43;62.34
39487;BME280;25173;50.430;18.926;2022-08-19T04:47:37;97695.59;;;24.62;62.06
39487;BME280;25173;50.430;18.926;2022-08-19T04:50:42;97693.91;;;24.84;61.34
39487;BME280;25173;50.430;18.926;2022-08-19T04:53:43;97700.53;;;25.02;61.31
39487;BME280;25173;50.430;18.926;2022-08-19T04:56:44;97696.38;;;25.23;60.71
39487;BME280;25173;50.430;18.926;2022-08-19T04:59:45;97694.16;;;25.39;60.51
39487;BME280;25173;50.430;18.926;2022-08-19T05:02:45;97690.31;;;25.54;60.22
39487;BME280;25173;50.430;18.926;2022-08-19T05:05:47;97692.41;;;25.61;59.87
39487;BME280;25173;50.430;18.926;2022-08-19T05:08:49;97690.88;;;25.67;59.64
39487;BME280;25173;50.430;18.926;2022-08-19T05:11:49;97692.09;;;25.73;59.64
39487;BME280;25173;50.430;18.926;2022-08-19T05:14:53;97685.41;;;25.81;59.81
39487;BME280;25173;50.430;18.926;2022-08-19T05:17:54;97697.84;;;25.90;59.47
39487;BME280;25173;50.430;18.926;2022-08-19T05:21:16;97685.13;;;25.97;59.21
39487;BME280;25173;50.430;18.926;2022-08-19T05:24:36;97693.63;;;26.11;58.76
39487;BME280;25173;50.430;18.926;2022-08-19T05:27:36;97684.53;;;26.24;58.32
39487;BME280;25173;50.430;18.926;2022-08-19T05:30:37;97690.66;;;26.37;58.23
39487;BME280;25173;50.430;18.926;2022-08-19T05:33:38;97700.28;;;26.50;58.22
39487;BME280;25173;50.430;18.926;2022-08-19T05:36:41;97710.34;;;26.65;57.85
39487;BME280;25173;50.430;18.926;2022-08-19T05:39:43;97717.59;;;26.77;57.72
39487;BME280;25173;50.430;18.926;2022-08-19T05:42:44;97717.66;;;26.88;57.18
39487;BME280;25173;50.430;18.926;2022-08-19T05:45:44;97720.91;;;26.97;57.13
39487;BME280;25173;50.430;18.926;2022-08-19T05:48:45;97712.94;;;27.06;56.67
39487;BME280;25173;50.430;18.926;2022-08-19T05:51:46;97725.38;;;27.16;56.90
39487;BME280;25173;50.430;18.926;2022-08-19T05:54:47;97720.59;;;27.23;56.72
39487;BME280;25173;50.430;18.926;2022-08-19T05:57:48;97715.81;;;27.27;56.55
39487;BME280;25173;50.430;18.926;2022-08-19T06:00:49;97713.03;;;27.24;56.30
39487;BME280;25173;50.430;18.926;2022-08-19T06:03:53;97716.63;;;27.24;55.99
39487;BME280;25173;50.430;18.926;2022-08-19T06:06:54;97722.59;;;27.23;55.72
39487;BME280;25173;50.430;18.926;2022-08-19T06:09:55;97728.97;;;27.20;56.14
39487;BME280;25173;50.430;18.926;2022-08-19T06:12:55;97731.78;;;27.23;56.32
39487;BME280;25173;50.430;18.926;2022-08-19T06:15:56;97725.78;;;27.21;56.14
39487;BME280;25173;50.430;18.926;2022-08-19T06:18:59;97728.59;;;27.25;56.12
39487;BME280;25173;50.430;18.926;2022-08-19T06:22:00;97730.59;;;27.28;55.96
39487;BME280;25173;50.430;18.926;2022-08-19T06:25:02;97734.63;;;27.34;55.94
39487;BME280;25173;50.430;18.926;2022-08-19T06:28:04;97736.22;;;27.42;55.92
39487;BME280;25173;50.430;18.926;2022-08-19T06:31:08;97743.44;;;27.50;55.89
39487;BME280;25173;50.430;18.926;2022-08-19T06:34:09;97731.06;;;27.51;56.00
39487;BME280;25173;50.430;18.926;2022-08-19T06:37:11;97721.53;;;27.59;56.13
39487;BME280;25173;50.430;18.926;2022-08-19T06:40:12;97737.16;;;27.71;56.44
39487;BME280;25173;50.430;18.926;2022-08-19T06:43:13;97751.94;;;27.82;55.89
39487;BME280;25173;50.430;18.926;2022-08-19T06:46:17;97752.34;;;27.88;55.74
39487;BME280;25173;50.430;18.926;2022-08-19T06:49:22;97751.53;;;27.94;55.94
39487;BME280;25173;50.430;18.926;2022-08-19T06:52:23;97754.75;;;28.03;55.86
39487;BME280;25173;50.430;18.926;2022-08-19T06:55:24;97772.78;;;28.16;55.46
39487;BME280;25173;50.430;18.926;2022-08-19T06:58:25;97771.59;;;28.32;55.21
39487;BME280;25173;50.430;18.926;2022-08-19T07:01:25;97778.00;;;28.50;54.99
39487;BME280;25173;50.430;18.926;2022-08-19T07:04:28;97773.16;;;28.61;55.28
39487;BME280;25173;50.430;18.926;2022-08-19T07:07:31;97783.56;;;28.64;54.52
39487;BME280;25173;50.430;18.926;2022-08-19T07:10:33;97783.56;;;28.64;54.63
39487;BME280;25173;50.430;18.926;2022-08-19T07:13:36;97779.56;;;28.62;54.57
39487;BME280;25173;50.430;18.926;2022-08-19T07:16:37;97788.41;;;28.60;54.92
39487;BME280;25173;50.430;18.926;2022-08-19T07:19:39;97787.56;;;28.63;54.68
39487;BME280;25173;50.430;18.926;2022-08-19T07:22:41;97781.56;;;28.65;54.76
39487;BME280;25173;50.430;18.926;2022-08-19T07:25:42;97793.19;;;28.63;54.20
39487;BME280;25173;50.430;18.926;2022-08-19T07:28:43;97802.41;;;28.60;54.12
39487;BME280;25173;50.430;18.926;2022-08-19T07:31:44;97804.41;;;28.60;54.81
39487;BME280;25173;50.430;18.926;2022-08-19T07:34:45;97801.19;;;28.61;54.92
39487;BME280;25173;50.430;18.926;2022-08-19T07:37:46;97810.00;;;28.63;53.95
39487;BME280;25173;50.430;18.926;2022-08-19T07:40:46;97818.41;;;28.63;54.52
39487;BME280;25173;50.430;18.926;2022-08-19T07:43:48;97815.59;;;28.63;54.36
39487;BME280;25173;50.430;18.926;2022-08-19T07:46:52;97811.97;;;28.70;53.84
39487;BME280;25173;50.430;18.926;2022-08-19T07:49:53;97825.19;;;28.83;53.83
39487;BME280;25173;50.430;18.926;2022-08-19T07:52:54;97820.78;;;29.04;53.78
39487;BME280;25173;50.430;18.926;2022-08-19T07:55:55;97831.53;;;29.23;52.92
39487;BME280;25173;50.430;18.926;2022-08-19T07:58:59;97825.88;;;29.44;52.34
39487;BME280;25173;50.430;18.926;2022-08-19T08:02:01;97832.22;;;29.62;52.52
39487;BME280;25173;50.430;18.926;2022-08-19T08:05:02;97832.91;;;29.81;52.85
39487;BME280;25173;50.430;18.926;2022-08-19T08:08:22;97824.06;;;29.93;51.96
39487;BME280;25173;50.430;18.926;2022-08-19T08:14:55;97831.25;;;29.97;51.88
39487;BME280;25173;50.430;18.926;2022-08-19T08:17:56;97835.25;;;30.00;52.10
39487;BME280;25173;50.430;18.926;2022-08-19T08:20:58;97830.75;;;30.09;51.83
39487;BME280;25173;50.430;18.926;2022-08-19T08:23:59;97827.09;;;30.16;51.76
39487;BME280;25173;50.430;18.926;2022-08-19T08:27:00;97830.69;;;30.20;51.59
39487;BME280;25173;50.430;18.926;2022-08-19T08:30:01;97827.81;;;30.27;51.99
39487;BME280;25173;50.430;18.926;2022-08-19T08:33:01;97821.75;;;30.32;51.77
39487;BME280;25173;50.430;18.926;2022-08-19T08:36:04;97825.28;;;30.43;51.84
39487;BME280;25173;50.430;18.926;2022-08-19T08:39:05;97823.63;;;30.53;51.42
39487;BME280;25173;50.430;18.926;2022-08-19T08:42:11;97820.78;;;30.57;51.21
39487;BME280;25173;50.430;18.926;2022-08-19T08:45:17;97819.53;;;30.61;51.38
39487;BME280;25173;50.430;18.926;2022-08-19T08:48:24;97814.63;;;30.69;51.00
39487;BME280;25173;50.430;18.926;2022-08-19T08:51:36;97816.59;;;30.75;50.94
39487;BME280;25173;50.430;18.926;2022-08-19T08:54:44;97803.66;;;30.85;50.78
39487;BME280;25173;50.430;18.926;2022-08-19T08:57:55;97804.28;;;31.03;50.67
39487;BME280;25173;50.430;18.926;2022-08-19T09:00:57;97795.56;;;31.28;50.52
39487;BME280;25173;50.430;18.926;2022-08-19T09:03:58;97791.22;;;31.54;49.68
39487;BME280;25173;50.430;18.926;2022-08-19T09:10:39;97782.88;;;31.77;48.05
39487;BME280;25173;50.430;18.926;2022-08-19T09:17:12;97797.66;;;31.85;48.38
39487;BME280;25173;50.430;18.926;2022-08-19T09:20:18;97809.16;;;31.97;47.99
39487;BME280;25173;50.430;18.926;2022-08-19T09:23:19;97817.44;;;32.08;47.91
39487;BME280;25173;50.430;18.926;2022-08-19T09:26:22;97814.38;;;32.26;46.93
39487;BME280;25173;50.430;18.926;2022-08-19T09:29:23;97810.91;;;32.42;47.37
39487;BME280;25173;50.430;18.926;2022-08-19T09:32:24;97814.69;;;32.55;46.82
39487;BME280;25173;50.430;18.926;2022-08-19T09:35:29;97817.31;;;32.69;47.13
39487;BME280;25173;50.430;18.926;2022-08-19T09:38:29;97820.38;;;32.78;46.73
39487;BME280;25173;50.430;18.926;2022-08-19T09:41:30;97816.50;;;32.92;46.57
39487;BME280;25173;50.430;18.926;2022-08-19T09:44:31;97811.75;;;33.08;46.20
39487;BME280;25173;50.430;18.926;2022-08-19T09:47:33;97816.72;;;33.24;46.02
39487;BME280;25173;50.430;18.926;2022-08-19T09:50:38;97812.81;;;33.38;45.84
39487;BME280;25173;50.430;18.926;2022-08-19T09:53:39;97812.59;;;33.48;45.74
39487;BME280;25173;50.430;18.926;2022-08-19T09:56:39;97821.78;;;33.52;43.51
39487;BME280;25173;50.430;18.926;2022-08-19T09:59:40;97820.03;;;33.59;43.76
39487;BME280;25173;50.430;18.926;2022-08-19T10:02:40;97831.41;;;33.55;43.29
39487;BME280;25173;50.430;18.926;2022-08-19T10:05:42;97815.13;;;33.63;42.90
39487;BME280;25173;50.430;18.926;2022-08-19T10:08:49;97807.44;;;33.83;43.19
39487;BME280;25173;50.430;18.926;2022-08-19T10:11:50;97813.28;;;33.92;41.75
39487;BME280;25173;50.430;18.926;2022-08-19T10:14:50;97810.19;;;34.03;40.88
39487;BME280;25173;50.430;18.926;2022-08-19T10:17:53;97811.91;;;34.16;40.85
39487;BME280;25173;50.430;18.926;2022-08-19T10:21:09;97814.59;;;34.40;41.79
39487;BME280;25173;50.430;18.926;2022-08-19T10:24:10;97803.41;;;34.52;42.18
39487;BME280;25173;50.430;18.926;2022-08-19T10:27:10;97812.69;;;34.53;41.66
39487;BME280;25173;50.430;18.926;2022-08-19T10:30:13;97810.72;;;34.50;40.72
39487;BME280;25173;50.430;18.926;2022-08-19T10:33:13;97806.28;;;34.65;41.84
39487;BME280;25173;50.430;18.926;2022-08-19T10:36:18;97798.81;;;34.75;40.33
39487;BME280;25173;50.430;18.926;2022-08-19T10:39:19;97800.22;;;34.83;41.09
39487;BME280;25173;50.430;18.926;2022-08-19T10:42:20;97810.00;;;34.94;40.83
39487;BME280;25173;50.430;18.926;2022-08-19T10:45:21;97802.34;;;35.08;39.43
39487;BME280;25173;50.430;18.926;2022-08-19T10:48:25;97800.03;;;35.19;39.00
39487;BME280;25173;50.430;18.926;2022-08-19T10:51:26;97806.03;;;35.21;38.22
39487;BME280;25173;50.430;18.926;2022-08-19T10:54:45;97798.44;;;35.18;39.54
39487;BME280;25173;50.430;18.926;2022-08-19T10:58:10;97782.69;;;35.17;38.42
39487;BME280;25173;50.430;18.926;2022-08-19T11:01:11;97775.66;;;35.21;39.02
39487;BME280;25173;50.430;18.926;2022-08-19T11:04:12;97768.34;;;35.24;39.44
39487;BME280;25173;50.430;18.926;2022-08-19T11:07:13;97775.78;;;35.18;39.08
39487;BME280;25173;50.430;18.926;2022-08-19T11:10:14;97767.66;;;35.20;39.20
39487;BME280;25173;50.430;18.926;2022-08-19T11:13:15;97767.47;;;35.27;39.79
39487;BME280;25173;50.430;18.926;2022-08-19T11:16:22;97766.06;;;35.19;39.27
39487;BME280;25173;50.430;18.926;2022-08-19T11:19:23;97761.25;;;35.03;39.57
39487;BME280;25173;50.430;18.926;2022-08-19T11:22:24;97767.41;;;34.98;39.82
39487;BME280;25173;50.430;18.926;2022-08-19T11:25:24;97765.19;;;35.05;39.51
39487;BME280;25173;50.430;18.926;2022-08-19T11:28:25;97773.31;;;35.20;39.67
39487;BME280;25173;50.430;18.926;2022-08-19T11:31:29;97757.38;;;35.26;39.38
39487;BME280;25173;50.430;18.926;2022-08-19T11:34:31;97751.94;;;35.31;39.10
39487;BME280;25173;50.430;18.926;2022-08-19T11:37:32;97759.56;;;35.47;38.57
39487;BME280;25173;50.430;18.926;2022-08-19T11:40:37;97763.94;;;35.64;38.61
39487;BME280;25173;50.430;18.926;2022-08-19T11:43:38;97759.09;;;35.77;38.04
39487;BME280;25173;50.430;18.926;2022-08-19T11:46:41;97765.31;;;35.98;38.16
39487;BME280;25173;50.430;18.926;2022-08-19T11:49:46;97771.47;;;36.22;36.38
39487;BME280;25173;50.430;18.926;2022-08-19T11:52:47;97778.06;;;36.31;36.62
39487;BME280;25173;50.430;18.926;2022-08-19T11:55:52;97769.06;;;36.45;36.29
39487;BME280;25173;50.430;18.926;2022-08-19T11:58:57;97768.34;;;36.54;36.63
39487;BME280;25173;50.430;18.926;2022-08-19T12:01:57;97766.66;;;36.56;37.05
39487;BME280;25173;50.430;18.926;2022-08-19T12:04:59;97767.59;;;36.88;35.89
39487;BME280;25173;50.430;18.926;2022-08-19T12:08:03;97768.38;;;37.23;36.19
39487;BME280;25173;50.430;18.926;2022-08-19T12:11:04;97757.97;;;37.42;35.95
39487;BME280;25173;50.430;18.926;2022-08-19T12:14:08;97763.50;;;37.45;34.71
39487;BME280;25173;50.430;18.926;2022-08-19T12:17:09;97764.56;;;37.39;35.54
39487;BME280;25173;50.430;18.926;2022-08-19T12:20:12;97761.47;;;37.24;35.95
39487;BME280;25173;50.430;18.926;2022-08-19T12:23:17;97761.16;;;37.09;36.64
39487;BME280;25173;50.430;18.926;2022-08-19T12:26:18;97746.75;;;36.82;36.77
39487;BME280;25173;50.430;18.926;2022-08-19T12:29:19;97751.13;;;36.48;37.09
39487;BME280;25173;50.430;18.926;2022-08-19T12:32:19;97746.84;;;36.18;37.50
39487;BME280;25173;50.430;18.926;2022-08-19T12:35:21;97750.56;;;36.03;38.14
39487;BME280;25173;50.430;18.926;2022-08-19T12:38:22;97732.53;;;35.97;38.58
39487;BME280;25173;50.430;18.926;2022-08-19T12:41:24;97732.19;;;35.95;38.14
39487;BME280;25173;50.430;18.926;2022-08-19T12:44:25;97734.72;;;35.93;37.85
39487;BME280;25173;50.430;18.926;2022-08-19T12:47:26;97732.69;;;35.93;38.13
39487;BME280;25173;50.430;18.926;2022-08-19T12:50:27;97729.72;;;35.97;37.60
39487;BME280;25173;50.430;18.926;2022-08-19T12:53:28;97730.75;;;35.90;37.37
39487;BME280;25173;50.430;18.926;2022-08-19T12:56:29;97726.31;;;35.76;37.08
39487;BME280;25173;50.430;18.926;2022-08-19T12:59:30;97724.38;;;35.73;36.71
39487;BME280;25173;50.430;18.926;2022-08-19T13:02:30;97722.53;;;35.67;36.91
39487;BME280;25173;50.430;18.926;2022-08-19T13:05:33;97723.34;;;35.67;37.18
39487;BME280;25173;50.430;18.926;2022-08-19T13:08:34;97731.75;;;35.84;37.07
39487;BME280;25173;50.430;18.926;2022-08-19T13:11:36;97731.53;;;35.91;36.64
39487;BME280;25173;50.430;18.926;2022-08-19T13:14:38;97729.50;;;35.78;36.85
39487;BME280;25173;50.430;18.926;2022-08-19T13:17:39;97735.28;;;35.75;37.04
39487;BME280;25173;50.430;18.926;2022-08-19T13:20:40;97729.72;;;35.71;37.36
39487;BME280;25173;50.430;18.926;2022-08-19T13:23:41;97734.59;;;35.84;37.38
39487;BME280;25173;50.430;18.926;2022-08-19T13:26:42;97735.16;;;36.04;37.57
39487;BME280;25173;50.430;18.926;2022-08-19T13:29:42;97737.78;;;36.24;37.63
39487;BME280;25173;50.430;18.926;2022-08-19T13:33:02;97742.19;;;36.37;36.84
39487;BME280;25173;50.430;18.926;2022-08-19T13:36:12;97738.41;;;36.66;37.29
39487;BME280;25173;50.430;18.926;2022-08-19T13:39:12;97736.34;;;37.22;36.23
39487;BME280;25173;50.430;18.926;2022-08-19T13:42:13;97728.19;;;37.77;36.30
39487;BME280;25173;50.430;18.926;2022-08-19T13:45:16;97729.00;;;38.27;35.16
39487;BME280;25173;50.430;18.926;2022-08-19T13:48:18;97729.91;;;38.82;33.98
39487;BME280;25173;50.430;18.926;2022-08-19T13:51:19;97728.16;;;39.30;34.12
39487;BME280;25173;50.430;18.926;2022-08-19T13:54:19;97713.84;;;39.67;32.34
39487;BME280;25173;50.430;18.926;2022-08-19T13:57:20;97717.19;;;40.07;31.93
39487;BME280;25173;50.430;18.926;2022-08-19T14:00:22;97714.34;;;40.07;31.89
39487;BME280;25173;50.430;18.926;2022-08-19T14:03:24;97717.19;;;40.07;32.55
39487;BME280;25173;50.430;18.926;2022-08-19T14:06:25;97706.31;;;40.29;31.82
39487;BME280;25173;50.430;18.926;2022-08-19T14:09:25;97705.84;;;40.31;31.48
39487;BME280;25173;50.430;18.926;2022-08-19T14:12:26;97711.97;;;40.39;31.25
39487;BME280;25173;50.430;18.926;2022-08-19T14:15:27;97704.47;;;40.41;30.73
39487;BME280;25173;50.430;18.926;2022-08-19T14:18:28;97702.41;;;40.65;30.62
39487;BME280;25173;50.430;18.926;2022-08-19T14:21:29;97695.19;;;40.79;31.32
39487;BME280;25173;50.430;18.926;2022-08-19T14:24:30;97692.16;;;40.83;31.36
39487;BME280;25173;50.430;18.926;2022-08-19T14:27:33;97692.56;;;40.90;31.24
39487;BME280;25173;50.430;18.926;2022-08-19T14:30:36;97693.50;;;40.72;31.83
39487;BME280;25173;50.430;18.926;2022-08-19T14:33:38;97690.41;;;40.38;32.16
39487;BME280;25173;50.430;18.926;2022-08-19T14:36:39;97689.53;;;39.89;32.61
39487;BME280;25173;50.430;18.926;2022-08-19T14:39:43;97686.28;;;39.64;32.54
39487;BME280;25173;50.430;18.926;2022-08-19T14:42:45;97687.53;;;39.72;32.57
39487;BME280;25173;50.430;18.926;2022-08-19T14:45:45;97682.06;;;39.92;32.38
39487;BME280;25173;50.430;18.926;2022-08-19T14:48:46;97673.72;;;40.12;32.75
39487;BME280;25173;50.430;18.926;2022-08-19T14:51:47;97673.69;;;40.45;32.69
39487;BME280;25173;50.430;18.926;2022-08-19T14:54:47;97661.75;;;40.70;32.54
39487;BME280;25173;50.430;18.926;2022-08-19T14:57:48;97655.69;;;40.92;31.99
39487;BME280;25173;50.430;18.926;2022-08-19T15:00:49;97659.00;;;41.15;31.78
39487;BME280;25173;50.430;18.926;2022-08-19T15:03:50;97650.03;;;41.22;30.83
39487;BME280;25173;50.430;18.926;2022-08-19T15:06:54;97645.88;;;41.23;30.69
39487;BME280;25173;50.430;18.926;2022-08-19T15:09:56;97653.09;;;41.33;30.44
39487;BME280;25173;50.430;18.926;2022-08-19T15:12:56;97645.09;;;41.37;30.32
39487;BME280;25173;50.430;18.926;2022-08-19T15:15:57;97647.28;;;41.57;30.34
39487;BME280;25173;50.430;18.926;2022-08-19T15:18:58;97642.34;;;41.72;29.99
39487;BME280;25173;50.430;18.926;2022-08-19T15:22:00;97640.25;;;41.58;30.01
39487;BME280;25173;50.430;18.926;2022-08-19T15:25:01;97646.06;;;41.04;30.03
39487;BME280;25173;50.430;18.926;2022-08-19T15:28:03;97646.09;;;40.42;30.80
39487;BME280;25173;50.430;18.926;2022-08-19T15:31:04;97636.91;;;39.90;31.92
39487;BME280;25173;50.430;18.926;2022-08-19T15:34:05;97630.00;;;39.40;32.80
39487;BME280;25173;50.430;18.926;2022-08-19T15:37:06;97611.84;;;38.92;32.91
39487;BME280;25173;50.430;18.926;2022-08-19T15:40:08;97603.53;;;38.52;34.00
39487;BME280;25173;50.430;18.926;2022-08-19T15:43:08;97600.63;;;38.06;34.60
39487;BME280;25173;50.430;18.926;2022-08-19T15:46:09;97603.38;;;37.70;34.94
39487;BME280;25173;50.430;18.926;2022-08-19T15:49:11;97615.38;;;37.34;35.44
39487;BME280;25173;50.430;18.926;2022-08-19T15:52:12;97614.34;;;36.97;36.02
39487;BME280;25173;50.430;18.926;2022-08-19T15:55:13;97627.34;;;36.64;36.50
39487;BME280;25173;50.430;18.926;2022-08-19T15:58:14;97642.34;;;36.30;36.50
39487;BME280;25173;50.430;18.926;2022-08-19T16:01:33;97631.66;;;35.87;36.86
39487;BME280;25173;50.430;18.926;2022-08-19T16:04:53;97620.41;;;35.45;37.78